Athol, New York
Current Conditions -  °F | °C
As of 1:53 AM on Wednesday 22 Oct 2014 (Local Time) from KGFL Reporting Station
Overcast Overcast  
Wind Chill: 50°   Ceiling: 1600
Heat Index: 50°   Visibility: 10mi
Dew Point: 45°   Wind: 9mph
Humidity: 83%   Direction: 20°NNE
Pressure: 30.04"   Gusts: NA
Location:  43.46°N, 73.9°W
Report Text: KGFL 220553Z AUTO 02008KT 10SM OVC016 10/07 A3004 RMK AO2 SLP176 T01000072 10106 20100 50000
Loading
Personal Weather Stations






























Interactive Weather Map
Tropical Storm Tracking
New forecast layout! Learn more

10-Day Weather Forecast

Advertisements
Track Severe Weather on mobile